Messwerte Bisho

Temperatur

Temperatur
°C
1576213200 7.00 7.00 18
1576216800 8.00 8.00 19
1576220400 9.00 9.00
1576224000 10.00 10.00 21
1576227600 11.00 11.00 22
1576231200 12.00 12.00 22
1576234800 13.00 13.00 22
1576238400 14.00 14.00
1576242000 15.00 15.00 25
1576245600 16.00 16.00 25
1576249200 17.00 17.00 24
1576252800 18.00 18.00
1576256400 19.00 19.00
1576260000 20.00 20.00 18
1576263600 21.00 21.00 18
1576267200 22.00 22.00 17
1576270800 23.00 23.00 17
1576274400 0.00 0.00 17
1576278000 1.00 1.00 17
1576281600 2.00 2.00 17
1576285200 3.00 3.00 17
1576288800 4.00 4.00 17
1576292400 5.00 5.00 16
1576296000 6.00 6.00 18

Aktuellste Messwerte

Temperatur
20 °C
Feuchtigkeit
80 %
Wind
10 km/hWindrichtung: Ost
Luftdruck
1009 hPa
Messzeit: 14. Dezember 2019, 7.00Datenquelle: METAR

Weitere Messstationen in der Nähe

Messstation Temperatur Entfernung
Oos Londen 22 °C 53 km
Port Elizabeth 17 °C 195 km
Umtata 20 °C 201 km
Gariep Dam 20 °C 308 km
Maseru / Moshoeshoe 17 °C 383 km
Plettenberg Bay 20 °C 390 km
De Aar 21 °C 398 km

Wind

Windrichtung Böen Mittelwind
° km/h km/h
1576213200 7.00 6.00 - 7.00 50° 30
1576216800 8.00 7.00 - 8.00 50° 30
1576220400 9.00 8.00 - 9.00
1576224000 10.00 9.00 - 10.00 50° 30
1576227600 11.00 10.00 - 11.00 50° 30
1576231200 12.00 11.00 - 12.00 40° 30
1576234800 13.00 12.00 - 13.00 50° 35
1576238400 14.00 13.00 - 14.00
1576242000 15.00 14.00 - 15.00 40° 35
1576245600 16.00 15.00 - 16.00 60° 30
1576249200 17.00 16.00 - 17.00 60° 35
1576252800 18.00 17.00 - 18.00
1576256400 19.00 18.00 - 19.00
1576260000 20.00 19.00 - 20.00 60° 30
1576263600 21.00 20.00 - 21.00 60° 30
1576267200 22.00 21.00 - 22.00 60° 25
1576270800 23.00 22.00 - 23.00 60° 25
1576274400 0.00 23.00 - 0.00 70° 20
1576278000 1.00 0.00 - 1.00 60° 30
1576281600 2.00 1.00 - 2.00 50° 25
1576285200 3.00 2.00 - 3.00 50° 20
1576288800 4.00 3.00 - 4.00 70° 20
1576292400 5.00 4.00 - 5.00 70° 15
1576296000 6.00 5.00 - 6.00 70° 10

Ihre Wetterstation

Fehlt Ihre Wetterstation auf unserem Portal?

Schreiben Sie an network@meteonews.ch

Klima

Wann ist es am wärmsten? Wann regnet es am wenigsten? Unsere Klimadaten geben Auskunft.